Time;durP1;ratioP1;P1;durP2;ratioP2;P2;SDS_P1;SDS_P2;PMS_P1;PMS_P2;Temp;Humidity;BMP_temperature;BMP_pressure;BME280_temperature;BME280_humidity;BME280_pressure;Samples;Min_cycle;Max_cycle;Signal;HPM_P1;HPM_P2
2024/03/31 00:01:15;;;;;;;5.13;3.67;;;;;;;;;;4674747;30;20430;-79
2024/03/31 00:03:41;;;;;;;5.90;4.67;;;;;;;;;;4699647;30;20450;-78
2024/03/31 00:06:07;;;;;;;5.75;4.20;;;;;;;;;;4730401;30;20424;-79
2024/03/31 00:08:33;;;;;;;6.43;4.43;;;;;;;;;;4758577;30;20640;-79
2024/03/31 00:11:03;;;;;;;5.50;3.60;;;;;;;;;;4804710;29;20446;-79
2024/03/31 00:13:29;;;;;;;4.78;3.90;;;;;;;;;;4782270;29;20475;-79
2024/03/31 00:15:55;;;;;;;6.80;4.57;;;;;;;;;;4787866;29;20297;-79
2024/03/31 00:18:21;;;;;;;10.80;5.03;;;;;;;;;;4760907;30;20211;-78
2024/03/31 00:20:53;;;;;;;6.38;4.68;;;;;;;;;;4745042;30;20295;-78
2024/03/31 00:23:19;;;;;;;6.05;4.15;;;;;;;;;;4721179;30;20212;-79
2024/03/31 00:25:45;;;;;;;7.00;4.70;;;;;;;;;;4717233;30;20217;-79
2024/03/31 00:28:11;;;;;;;5.70;4.57;;;;;;;;;;4733722;30;20987;-79
2024/03/31 00:30:37;;;;;;;6.13;3.80;;;;;;;;;;4706714;30;20487;-79
2024/03/31 00:33:03;;;;;;;10.50;5.47;;;;;;;;;;4738027;30;20215;-79
2024/03/31 00:35:29;;;;;;;8.98;5.50;;;;;;;;;;4693923;30;20438;-79
2024/03/31 00:37:55;;;;;;;7.70;4.93;;;;;;;;;;4688858;30;20244;-79
2024/03/31 00:40:21;;;;;;;8.43;5.30;;;;;;;;;;4678058;30;20426;-79
2024/03/31 00:42:47;;;;;;;6.97;4.43;;;;;;;;;;4679004;30;20588;-79
2024/03/31 00:45:13;;;;;;;5.15;3.80;;;;;;;;;;4655809;30;20431;-79
2024/03/31 00:47:39;;;;;;;5.65;4.50;;;;;;;;;;4664073;30;20220;-79
2024/03/31 00:50:05;;;;;;;3.90;3.27;;;;;;;;;;4724024;30;20233;-78
2024/03/31 00:52:31;;;;;;;5.53;3.72;;;;;;;;;;4724489;30;20501;-79
2024/03/31 00:54:57;;;;;;;5.87;3.93;;;;;;;;;;4730173;30;20205;-79
2024/03/31 00:57:23;;;;;;;4.90;3.80;;;;;;;;;;4737952;30;20431;-78
2024/03/31 00:59:49;;;;;;;4.65;3.53;;;;;;;;;;4720866;30;20440;-78
2024/03/31 01:02:15;;;;;;;6.38;3.80;;;;;;;;;;4713193;30;20204;-78
2024/03/31 01:04:40;;;;;;;4.60;4.07;;;;;;;;;;4679205;30;20206;-78
2024/03/31 01:07:06;;;;;;;3.70;3.30;;;;;;;;;;4672178;30;20513;-78
2024/03/31 01:09:32;;;;;;;4.40;3.30;;;;;;;;;;4659744;30;20497;-78
2024/03/31 01:11:58;;;;;;;7.47;3.60;;;;;;;;;;4672691;30;20478;-78
2024/03/31 01:14:25;;;;;;;7.50;3.67;;;;;;;;;;4660683;30;20431;-78
2024/03/31 01:16:51;;;;;;;3.35;2.95;;;;;;;;;;4670933;30;20200;-78
2024/03/31 01:19:16;;;;;;;7.23;4.47;;;;;;;;;;4631609;30;20214;-78
2024/03/31 01:21:43;;;;;;;4.00;2.97;;;;;;;;;;4642114;30;20872;-78
2024/03/31 01:24:09;;;;;;;6.47;4.60;;;;;;;;;;4674175;30;20440;-78
2024/03/31 01:26:36;;;;;;;6.05;4.70;;;;;;;;;;4603054;30;20556;-78
2024/03/31 01:29:02;;;;;;;6.68;4.55;;;;;;;;;;4617755;31;20277;-78
2024/03/31 01:31:28;;;;;;;6.93;5.33;;;;;;;;;;4627087;30;20718;-78
2024/03/31 01:33:55;;;;;;;7.07;4.30;;;;;;;;;;4592996;31;20576;-78
2024/03/31 01:36:21;;;;;;;8.05;4.85;;;;;;;;;;4588935;31;20481;-78
2024/03/31 01:38:46;;;;;;;5.90;4.30;;;;;;;;;;4621542;31;20680;-79
2024/03/31 01:41:12;;;;;;;6.20;4.90;;;;;;;;;;4625693;30;20437;-79
2024/03/31 01:43:40;;;;;;;7.00;6.30;;;;;;;;;;4655145;30;20480;-79
2024/03/31 01:46:08;;;;;;;10.07;6.63;;;;;;;;;;4676853;30;20207;-79
2024/03/31 01:48:35;;;;;;;9.90;8.23;;;;;;;;;;4684321;30;20264;-79
2024/03/31 01:51:01;;;;;;;11.35;8.27;;;;;;;;;;4705952;30;20219;-79
2024/03/31 01:53:27;;;;;;;10.70;8.98;;;;;;;;;;4679397;30;20573;-79
2024/03/31 01:55:53;;;;;;;11.27;8.82;;;;;;;;;;4732708;30;20654;-78
2024/03/31 01:58:19;;;;;;;10.68;8.60;;;;;;;;;;4740912;30;20205;-79
2024/03/31 02:00:45;;;;;;;11.02;8.50;;;;;;;;;;4736590;30;20303;-79
2024/03/31 02:03:11;;;;;;;10.90;8.97;;;;;;;;;;4754408;30;20299;-78
2024/03/31 02:05:37;;;;;;;11.25;8.80;;;;;;;;;;4710106;30;20563;-79
2024/03/31 02:08:03;;;;;;;13.43;8.20;;;;;;;;;;4710354;30;20210;-79
2024/03/31 02:10:29;;;;;;;10.85;8.63;;;;;;;;;;4723282;30;20981;-79
2024/03/31 02:12:55;;;;;;;9.00;7.93;;;;;;;;;;4723195;30;20278;-79
2024/03/31 02:15:21;;;;;;;9.33;7.50;;;;;;;;;;4697062;30;20469;-79
2024/03/31 02:17:47;;;;;;;11.73;9.05;;;;;;;;;;4753566;30;20430;-79
2024/03/31 02:20:14;;;;;;;11.33;8.57;;;;;;;;;;4741260;30;20201;-79
2024/03/31 02:22:40;;;;;;;10.30;8.63;;;;;;;;;;4771502;30;20429;-79
2024/03/31 02:25:06;;;;;;;12.07;9.30;;;;;;;;;;4771535;30;20326;-79
2024/03/31 02:27:32;;;;;;;12.05;8.75;;;;;;;;;;4775950;29;20426;-79
2024/03/31 02:29:58;;;;;;;8.97;8.00;;;;;;;;;;4770969;29;20236;-79
2024/03/31 02:32:24;;;;;;;14.25;9.70;;;;;;;;;;4773560;30;20507;-79
2024/03/31 02:34:50;;;;;;;12.17;9.90;;;;;;;;;;4758420;30;20305;-79
2024/03/31 02:37:16;;;;;;;11.87;8.53;;;;;;;;;;4758888;30;20406;-80
2024/03/31 02:39:42;;;;;;;16.47;9.90;;;;;;;;;;4776167;30;20418;-81
2024/03/31 02:42:08;;;;;;;14.13;10.20;;;;;;;;;;4735040;30;20499;-81
2024/03/31 02:44:34;;;;;;;11.07;8.67;;;;;;;;;;4722631;30;20417;-81
2024/03/31 02:47:00;;;;;;;13.13;9.32;;;;;;;;;;4752309;30;20447;-81
2024/03/31 02:49:26;;;;;;;12.47;9.27;;;;;;;;;;4807272;29;20286;-81
2024/03/31 02:51:52;;;;;;;19.53;8.73;;;;;;;;;;4797811;29;20435;-82
2024/03/31 02:54:18;;;;;;;14.70;10.00;;;;;;;;;;4797930;29;20470;-82
2024/03/31 02:56:44;;;;;;;13.00;9.43;;;;;;;;;;4828872;29;20466;-82
2024/03/31 02:59:10;;;;;;;17.67;10.30;;;;;;;;;;4837136;29;20814;-83
2024/03/31 03:01:36;;;;;;;13.50;8.83;;;;;;;;;;4829482;29;20427;-83
2024/03/31 03:04:02;;;;;;;15.27;8.50;;;;;;;;;;4797956;29;20592;-82
2024/03/31 03:06:28;;;;;;;12.15;7.55;;;;;;;;;;4762067;30;20426;-83
2024/03/31 03:08:54;;;;;;;11.30;7.93;;;;;;;;;;4787504;30;20356;-83
2024/03/31 03:11:20;;;;;;;19.65;8.00;;;;;;;;;;4756807;30;20469;-83
2024/03/31 03:13:46;;;;;;;10.77;7.47;;;;;;;;;;4761519;30;20235;-83
2024/03/31 03:16:12;;;;;;;12.70;7.00;;;;;;;;;;4792503;29;20684;-83
2024/03/31 03:18:38;;;;;;;11.45;6.43;;;;;;;;;;4743289;30;20411;-83
2024/03/31 03:21:04;;;;;;;9.80;6.50;;;;;;;;;;4756771;30;20214;-83
2024/03/31 03:23:31;;;;;;;16.70;6.20;;;;;;;;;;4756723;30;20437;-83
2024/03/31 03:25:58;;;;;;;8.85;5.97;;;;;;;;;;4748053;29;20212;-82
2024/03/31 03:28:24;;;;;;;9.40;5.90;;;;;;;;;;4785991;30;20195;-83
2024/03/31 03:30:50;;;;;;;11.13;7.33;;;;;;;;;;4716415;30;20711;-82
2024/03/31 03:33:16;;;;;;;12.57;9.27;;;;;;;;;;4697718;30;20442;-83
2024/03/31 03:35:42;;;;;;;9.10;7.00;;;;;;;;;;4686171;30;20460;-83
2024/03/31 03:38:08;;;;;;;11.23;6.50;;;;;;;;;;4699406;30;20289;-83
2024/03/31 03:40:35;;;;;;;18.23;6.15;;;;;;;;;;4716661;30;20425;-85
2024/03/31 03:43:01;;;;;;;7.80;6.10;;;;;;;;;;4715854;30;20248;-84
2024/03/31 03:45:27;;;;;;;16.58;7.93;;;;;;;;;;4685895;30;20202;-84
2024/03/31 03:47:53;;;;;;;12.60;6.93;;;;;;;;;;4698788;30;20210;-84
2024/03/31 03:50:19;;;;;;;18.93;6.43;;;;;;;;;;4716278;30;20841;-84
2024/03/31 03:52:45;;;;;;;12.63;6.73;;;;;;;;;;4709568;30;20515;-84
2024/03/31 03:55:11;;;;;;;10.17;6.77;;;;;;;;;;4720603;30;20428;-84
2024/03/31 03:57:36;;;;;;;13.43;7.40;;;;;;;;;;4723976;30;20433;-83
2024/03/31 04:00:04;;;;;;;9.90;6.40;;;;;;;;;;4712767;30;20429;-83
2024/03/31 04:02:30;;;;;;;12.70;7.20;;;;;;;;;;4693128;30;20508;-83
2024/03/31 04:04:56;;;;;;;11.83;7.33;;;;;;;;;;4716387;30;20201;-83
2024/03/31 04:07:22;;;;;;;12.80;8.27;;;;;;;;;;4665637;30;20432;-84
2024/03/31 04:09:48;;;;;;;13.30;8.20;;;;;;;;;;4663898;30;21005;-83
2024/03/31 04:12:14;;;;;;;11.55;9.18;;;;;;;;;;4651925;30;20451;-84
2024/03/31 04:14:40;;;;;;;17.73;8.47;;;;;;;;;;4678885;30;20261;-84
2024/03/31 04:17:06;;;;;;;13.57;7.70;;;;;;;;;;4686318;30;20477;-83
2024/03/31 04:19:32;;;;;;;16.90;8.40;;;;;;;;;;4677910;30;20211;-84
2024/03/31 04:21:57;;;;;;;12.40;8.40;;;;;;;;;;4720177;30;20590;-83
2024/03/31 04:24:23;;;;;;;21.37;8.30;;;;;;;;;;4738455;30;20512;-83
2024/03/31 04:26:49;;;;;;;23.80;9.07;;;;;;;;;;4694962;30;20430;-83
2024/03/31 04:29:15;;;;;;;13.02;9.60;;;;;;;;;;4689559;30;21026;-83
2024/03/31 04:32:02;;;;;;;14.67;8.60;;;;;;;;;;4733882;30;20201;-84
2024/03/31 04:34:28;;;;;;;16.85;8.38;;;;;;;;;;4726149;30;21035;-84
2024/03/31 04:36:55;;;;;;;13.50;8.00;;;;;;;;;;4733576;30;20594;-84
2024/03/31 04:39:21;;;;;;;12.10;7.82;;;;;;;;;;4735849;30;20281;-84
2024/03/31 04:41:47;;;;;;;14.88;8.60;;;;;;;;;;4755016;30;20301;-83
2024/03/31 04:44:13;;;;;;;18.70;8.47;;;;;;;;;;4753302;30;20243;-86
2024/03/31 04:46:39;;;;;;;19.52;10.05;;;;;;;;;;4695199;30;20464;-85
2024/03/31 04:49:05;;;;;;;12.83;8.23;;;;;;;;;;4700332;30;20235;-86
2024/03/31 04:51:31;;;;;;;18.03;8.97;;;;;;;;;;4700418;30;20449;-85
2024/03/31 04:53:57;;;;;;;14.00;8.67;;;;;;;;;;4694353;30;20435;-84
2024/03/31 04:56:23;;;;;;;15.03;8.60;;;;;;;;;;4715984;30;20420;-84
2024/03/31 04:58:49;;;;;;;16.87;8.57;;;;;;;;;;4715718;30;20459;-85
2024/03/31 05:01:15;;;;;;;16.47;9.90;;;;;;;;;;4702461;30;20437;-84
2024/03/31 05:03:41;;;;;;;17.20;9.07;;;;;;;;;;4711742;30;20593;-84
2024/03/31 05:06:07;;;;;;;13.10;8.80;;;;;;;;;;4707202;30;20979;-84
2024/03/31 05:08:33;;;;;;;12.00;9.20;;;;;;;;;;4698414;30;20466;-84
2024/03/31 05:11:00;;;;;;;15.48;10.18;;;;;;;;;;4677821;30;20563;-84
2024/03/31 05:13:27;;;;;;;15.32;9.40;;;;;;;;;;4685544;30;20227;-86
2024/03/31 05:16:04;;;;;;;17.67;9.27;;;;;;;;;;4646786;30;20566;-85
2024/03/31 05:18:30;;;;;;;13.52;8.82;;;;;;;;;;4678410;30;20199;-84
2024/03/31 05:21:00;;;;;;;13.27;9.45;;;;;;;;;;4667987;30;20203;-84
2024/03/31 05:23:26;;;;;;;14.90;9.00;;;;;;;;;;4689503;30;20202;-85
2024/03/31 05:25:52;;;;;;;12.13;8.13;;;;;;;;;;4686625;30;20210;-86
2024/03/31 05:28:19;;;;;;;14.18;8.98;;;;;;;;;;4650488;30;20370;-85
2024/03/31 05:30:45;;;;;;;18.95;10.05;;;;;;;;;;4736080;30;20286;-85
2024/03/31 05:33:12;;;;;;;27.20;10.50;;;;;;;;;;4735646;30;20609;-84
2024/03/31 05:35:38;;;;;;;19.85;9.80;;;;;;;;;;4717640;30;20206;-86
2024/03/31 05:38:04;;;;;;;20.73;9.20;;;;;;;;;;4767593;30;20204;-84
2024/03/31 05:40:30;;;;;;;20.15;10.82;;;;;;;;;;4773823;29;20440;-85
2024/03/31 05:42:56;;;;;;;13.60;9.50;;;;;;;;;;4797662;29;20243;-85
2024/03/31 05:45:22;;;;;;;26.77;9.43;;;;;;;;;;4807651;29;20424;-84
2024/03/31 05:47:50;;;;;;;20.42;9.18;;;;;;;;;;4825663;29;20422;-84
2024/03/31 05:50:16;;;;;;;19.40;11.48;;;;;;;;;;4792853;29;20253;-84
2024/03/31 05:52:42;;;;;;;15.07;9.63;;;;;;;;;;4779136;29;20207;-85
2024/03/31 05:55:08;;;;;;;15.00;9.87;;;;;;;;;;4779933;29;20426;-84
2024/03/31 05:57:34;;;;;;;16.73;9.87;;;;;;;;;;4820629;29;20769;-85
2024/03/31 06:00:00;;;;;;;15.53;10.00;;;;;;;;;;4775255;29;20432;-84
2024/03/31 06:02:26;;;;;;;17.63;9.47;;;;;;;;;;4722245;30;20472;-85
2024/03/31 06:04:51;;;;;;;12.67;9.37;;;;;;;;;;4709840;30;20787;-84
2024/03/31 06:07:17;;;;;;;16.03;9.80;;;;;;;;;;4740244;30;20443;-85
2024/03/31 06:09:46;;;;;;;15.73;9.03;;;;;;;;;;4727258;30;20479;-85
2024/03/31 06:12:12;;;;;;;10.30;8.30;;;;;;;;;;4757127;30;20585;-84
2024/03/31 06:14:38;;;;;;;13.13;8.10;;;;;;;;;;4749168;30;20287;-85
2024/03/31 06:17:04;;;;;;;13.60;7.88;;;;;;;;;;4709017;30;20433;-84
2024/03/31 06:19:30;;;;;;;25.13;8.97;;;;;;;;;;4682183;30;20204;-84
2024/03/31 06:21:56;;;;;;;14.75;7.85;;;;;;;;;;4717516;30;20436;-84
2024/03/31 06:24:22;;;;;;;15.40;7.53;;;;;;;;;;4739884;30;20204;-85
2024/03/31 06:26:48;;;;;;;18.47;7.90;;;;;;;;;;4752960;30;20431;-85
2024/03/31 06:29:14;;;;;;;20.80;10.47;;;;;;;;;;4713199;30;20990;-85
2024/03/31 06:31:40;;;;;;;13.53;9.17;;;;;;;;;;4730372;30;20442;-84
2024/03/31 06:34:06;;;;;;;17.73;8.67;;;;;;;;;;4724848;30;20438;-82
2024/03/31 06:36:32;;;;;;;23.80;9.83;;;;;;;;;;4726208;30;20890;-84
2024/03/31 06:38:58;;;;;;;18.27;9.47;;;;;;;;;;4706280;30;20425;-85
2024/03/31 06:41:24;;;;;;;19.20;8.20;;;;;;;;;;4717416;30;20435;-85
2024/03/31 06:43:50;;;;;;;13.43;6.40;;;;;;;;;;4709461;30;20422;-85
2024/03/31 06:46:16;;;;;;;14.53;6.77;;;;;;;;;;4709195;30;20985;-85
2024/03/31 06:48:42;;;;;;;13.23;5.60;;;;;;;;;;4719083;30;20519;-86
2024/03/31 06:51:08;;;;;;;21.60;6.40;;;;;;;;;;4675069;30;20510;-84
2024/03/31 06:53:33;;;;;;;8.80;4.20;;;;;;;;;;4704696;30;20442;-86
2024/03/31 06:55:59;;;;;;;17.63;4.33;;;;;;;;;;4702863;30;20426;-83
2024/03/31 06:58:25;;;;;;;9.02;3.15;;;;;;;;;;4669941;30;20928;-85
2024/03/31 07:00:56;;;;;;;11.13;4.50;;;;;;;;;;4648322;30;20285;-85
2024/03/31 07:03:22;;;;;;;13.40;4.22;;;;;;;;;;4646524;30;20443;-85
2024/03/31 07:05:48;;;;;;;11.93;3.63;;;;;;;;;;4677870;30;20570;-85
2024/03/31 07:08:14;;;;;;;14.03;4.20;;;;;;;;;;4672802;30;20522;-85
2024/03/31 07:10:40;;;;;;;17.63;4.30;;;;;;;;;;4635488;30;20484;-86
2024/03/31 07:13:06;;;;;;;12.70;4.97;;;;;;;;;;4605888;31;20517;-85
2024/03/31 07:15:32;;;;;;;12.60;4.70;;;;;;;;;;4622793;30;20430;-85
2024/03/31 07:18:08;;;;;;;8.93;4.07;;;;;;;;;;4668434;30;20423;-84
2024/03/31 07:20:34;;;;;;;9.38;3.97;;;;;;;;;;4652145;30;20431;-85
2024/03/31 07:23:02;;;;;;;12.38;4.80;;;;;;;;;;4620791;30;20212;-85
2024/03/31 07:25:29;;;;;;;15.00;3.78;;;;;;;;;;4620051;30;20212;-85
2024/03/31 07:27:55;;;;;;;13.38;3.88;;;;;;;;;;4661943;30;20204;-85
2024/03/31 07:30:20;;;;;;;18.90;4.40;;;;;;;;;;4681403;30;20246;-83
2024/03/31 07:32:46;;;;;;;12.97;4.20;;;;;;;;;;4716639;30;20439;-82
2024/03/31 07:35:12;;;;;;;8.30;3.40;;;;;;;;;;4765882;30;20437;-84
2024/03/31 07:37:38;;;;;;;7.50;2.70;;;;;;;;;;4772827;30;20804;-84
2024/03/31 07:40:05;;;;;;;9.60;2.72;;;;;;;;;;4758128;30;20221;-84
2024/03/31 07:42:31;;;;;;;10.68;2.40;;;;;;;;;;4772925;29;20239;-83
2024/03/31 07:44:57;;;;;;;11.40;2.40;;;;;;;;;;4807681;29;20218;-87
2024/03/31 07:47:22;;;;;;;12.33;2.57;;;;;;;;;;4779203;29;20465;-85
2024/03/31 07:49:51;;;;;;;13.40;3.00;;;;;;;;;;4760889;29;20482;-83
2024/03/31 07:52:17;;;;;;;10.95;2.78;;;;;;;;;;4755105;30;21057;-83
2024/03/31 07:54:44;;;;;;;11.17;2.53;;;;;;;;;;4777100;29;20227;-83
2024/03/31 07:57:10;;;;;;;8.25;2.85;;;;;;;;;;4791300;29;20563;-83
2024/03/31 07:59:36;;;;;;;11.03;2.47;;;;;;;;;;4827523;29;20609;-83
2024/03/31 08:02:02;;;;;;;9.40;2.50;;;;;;;;;;4795031;29;20421;-80
2024/03/31 08:04:28;;;;;;;11.63;2.23;;;;;;;;;;4760137;30;20430;-81
2024/03/31 08:06:54;;;;;;;11.13;2.47;;;;;;;;;;4763392;30;21028;-80
2024/03/31 08:09:19;;;;;;;9.90;3.20;;;;;;;;;;4723265;30;20644;-81
2024/03/31 08:11:45;;;;;;;9.87;2.10;;;;;;;;;;4709417;30;20435;-81
2024/03/31 08:14:12;;;;;;;9.17;2.40;;;;;;;;;;4716218;30;20519;-80
2024/03/31 08:16:38;;;;;;;8.53;2.37;;;;;;;;;;4729636;30;20424;-81
2024/03/31 08:19:04;;;;;;;19.43;2.90;;;;;;;;;;4739186;30;20481;-81
2024/03/31 08:21:30;;;;;;;12.73;2.13;;;;;;;;;;4725381;30;20428;-81
2024/03/31 08:23:56;;;;;;;7.43;2.70;;;;;;;;;;4748536;30;20440;-81
2024/03/31 08:26:22;;;;;;;16.93;2.70;;;;;;;;;;4721056;30;20812;-80
2024/03/31 08:28:48;;;;;;;8.40;2.13;;;;;;;;;;4703877;30;20511;-80
2024/03/31 08:31:14;;;;;;;11.73;2.93;;;;;;;;;;4679307;30;20993;-81
2024/03/31 08:33:40;;;;;;;13.17;2.23;;;;;;;;;;4686811;30;20469;-81
2024/03/31 08:36:06;;;;;;;13.00;3.07;;;;;;;;;;4632783;30;20469;-81
2024/03/31 08:38:32;;;;;;;9.77;2.20;;;;;;;;;;4700092;30;21009;-80
2024/03/31 08:41:18;;;;;;;8.80;2.47;;;;;;;;;;4696014;30;20434;-80
2024/03/31 08:43:46;;;;;;;5.30;2.40;;;;;;;;;;4679182;30;20460;-80
2024/03/31 08:46:12;;;;;;;6.37;2.83;;;;;;;;;;4746754;30;20426;-80
2024/03/31 08:48:38;;;;;;;5.67;1.60;;;;;;;;;;4702251;30;20448;-80
2024/03/31 08:51:05;;;;;;;12.57;1.97;;;;;;;;;;4690138;30;20485;-80
2024/03/31 08:53:31;;;;;;;6.33;2.03;;;;;;;;;;4688074;30;20488;-80
2024/03/31 08:55:58;;;;;;;9.07;2.20;;;;;;;;;;4716825;30;20430;-79
2024/03/31 08:58:24;;;;;;;5.43;1.30;;;;;;;;;;4721878;30;20432;-80
2024/03/31 09:00:50;;;;;;;10.33;1.97;;;;;;;;;;4754998;30;20434;-81
2024/03/31 09:03:16;;;;;;;4.03;1.60;;;;;;;;;;4757152;30;20431;-79
2024/03/31 09:05:43;;;;;;;6.30;1.90;;;;;;;;;;4782458;29;20908;-81
2024/03/31 09:08:09;;;;;;;9.17;1.73;;;;;;;;;;4794008;29;20782;-80
2024/03/31 09:10:35;;;;;;;8.00;1.60;;;;;;;;;;4778036;29;21010;-80
2024/03/31 09:13:06;;;;;;;11.30;1.83;;;;;;;;;;4810379;29;20427;-81
2024/03/31 09:15:33;;;;;;;6.50;1.73;;;;;;;;;;4785392;29;20489;-80
2024/03/31 09:17:59;;;;;;;6.37;1.63;;;;;;;;;;4818996;29;20778;-80
2024/03/31 09:20:25;;;;;;;6.27;1.60;;;;;;;;;;4761293;29;20434;-79
2024/03/31 09:22:51;;;;;;;8.33;1.90;;;;;;;;;;4793560;29;20417;-80
2024/03/31 09:25:18;;;;;;;10.07;1.83;;;;;;;;;;4811546;29;20391;-80
2024/03/31 09:27:44;;;;;;;6.67;1.90;;;;;;;;;;4766373;29;20425;-80
2024/03/31 09:30:10;;;;;;;4.67;1.80;;;;;;;;;;4810995;29;20575;-79
2024/03/31 09:32:38;;;;;;;6.40;2.17;;;;;;;;;;4801050;29;20464;-80
2024/03/31 09:35:04;;;;;;;5.63;1.40;;;;;;;;;;4796726;29;20427;-79
2024/03/31 09:37:31;;;;;;;10.33;1.67;;;;;;;;;;4782368;29;20429;-80
2024/03/31 09:39:57;;;;;;;4.50;1.40;;;;;;;;;;4796219;29;20432;-80
2024/03/31 09:42:25;;;;;;;7.23;1.67;;;;;;;;;;4828014;29;20482;-80
2024/03/31 09:44:51;;;;;;;4.27;1.23;;;;;;;;;;4832118;29;20959;-80
2024/03/31 09:47:22;;;;;;;5.30;1.87;;;;;;;;;;4796253;29;20500;-79
2024/03/31 09:49:58;;;;;;;6.50;1.87;;;;;;;;;;4810420;29;20465;-79
2024/03/31 09:52:26;;;;;;;3.63;1.30;;;;;;;;;;4813075;29;20474;-80
2024/03/31 09:54:58;;;;;;;6.30;1.80;;;;;;;;;;4834789;29;20394;-79
2024/03/31 09:57:26;;;;;;;6.37;1.80;;;;;;;;;;4827128;29;20415;-79
2024/03/31 09:59:58;;;;;;;3.97;1.70;;;;;;;;;;4844594;29;20888;-80
2024/03/31 10:02:26;;;;;;;8.70;2.20;;;;;;;;;;4837603;29;20431;-80
2024/03/31 10:05:11;;;;;;;3.23;1.37;;;;;;;;;;4824693;29;20394;-80
2024/03/31 10:07:37;;;;;;;5.20;1.70;;;;;;;;;;4858074;29;20547;-80
2024/03/31 10:10:03;;;;;;;11.40;2.70;;;;;;;;;;4859537;29;21003;-78
2024/03/31 10:12:30;;;;;;;7.10;1.50;;;;;;;;;;4889858;29;20416;-79
2024/03/31 10:14:57;;;;;;;4.10;1.20;;;;;;;;;;4909565;29;20493;-79
2024/03/31 10:17:23;;;;;;;5.43;1.53;;;;;;;;;;4859582;29;20396;-79
2024/03/31 10:19:50;;;;;;;3.57;1.00;;;;;;;;;;4880080;29;20482;-78
2024/03/31 10:22:16;;;;;;;6.53;1.63;;;;;;;;;;4879700;29;21032;-79
2024/03/31 10:24:42;;;;;;;4.43;1.57;;;;;;;;;;4830469;29;20434;-79
2024/03/31 10:27:08;;;;;;;9.37;1.97;;;;;;;;;;4880085;29;20394;-79
2024/03/31 10:29:35;;;;;;;12.80;1.97;;;;;;;;;;4826315;29;20475;-79
2024/03/31 10:32:01;;;;;;;6.40;1.20;;;;;;;;;;4861551;29;20439;-79
2024/03/31 10:34:28;;;;;;;4.37;1.50;;;;;;;;;;4853124;29;20438;-79
2024/03/31 10:36:54;;;;;;;2.10;1.07;;;;;;;;;;4859695;29;20876;-78
2024/03/31 10:39:21;;;;;;;5.93;1.33;;;;;;;;;;4824036;29;20451;-77
2024/03/31 10:41:48;;;;;;;4.53;1.67;;;;;;;;;;4770011;30;20511;-77
2024/03/31 10:44:15;;;;;;;4.30;1.40;;;;;;;;;;4748016;30;20918;-77
2024/03/31 10:46:41;;;;;;;7.00;1.63;;;;;;;;;;4756571;30;20426;-79
2024/03/31 10:49:07;;;;;;;5.70;1.57;;;;;;;;;;4806080;29;20424;-79
2024/03/31 10:51:34;;;;;;;5.43;1.33;;;;;;;;;;4800738;29;20431;-81
2024/03/31 10:54:20;;;;;;;5.50;1.70;;;;;;;;;;4809667;29;20435;-78
2024/03/31 10:56:47;;;;;;;6.47;2.20;;;;;;;;;;4823082;29;20492;-77
2024/03/31 10:59:13;;;;;;;5.80;1.40;;;;;;;;;;4841697;29;20437;-78
2024/03/31 11:01:40;;;;;;;5.13;1.47;;;;;;;;;;4825036;29;20463;-77
2024/03/31 11:04:21;;;;;;;5.13;1.50;;;;;;;;;;4823595;29;20430;-78
2024/03/31 11:06:47;;;;;;;7.53;1.80;;;;;;;;;;4824157;29;20419;-80
2024/03/31 11:09:13;;;;;;;3.60;1.40;;;;;;;;;;4809833;29;20567;-80
2024/03/31 11:11:40;;;;;;;3.67;1.27;;;;;;;;;;4823136;29;20458;-82
2024/03/31 11:14:06;;;;;;;7.53;1.67;;;;;;;;;;4846246;29;20511;-80
2024/03/31 11:16:32;;;;;;;3.20;1.30;;;;;;;;;;4841192;29;20430;-80
2024/03/31 11:18:59;;;;;;;6.80;2.17;;;;;;;;;;4822686;29;20402;-81
2024/03/31 11:21:34;;;;;;;6.80;1.60;;;;;;;;;;4841165;29;20467;-81
2024/03/31 11:24:03;;;;;;;4.77;1.50;;;;;;;;;;4822870;29;20435;-80
2024/03/31 11:26:30;;;;;;;6.57;1.57;;;;;;;;;;4840569;29;20422;-79
2024/03/31 11:28:57;;;;;;;3.70;1.10;;;;;;;;;;4823596;29;20456;-78
2024/03/31 11:31:23;;;;;;;6.20;1.43;;;;;;;;;;4822352;29;20481;-77
2024/03/31 11:33:49;;;;;;;4.57;1.10;;;;;;;;;;4823704;29;20507;-81
2024/03/31 11:36:18;;;;;;;5.60;1.67;;;;;;;;;;4849208;29;20448;-80
2024/03/31 11:38:45;;;;;;;6.90;1.97;;;;;;;;;;4825211;29;20401;-82
2024/03/31 11:41:11;;;;;;;4.80;1.17;;;;;;;;;;4884720;29;20435;-87
2024/03/31 11:43:37;;;;;;;4.53;1.27;;;;;;;;;;4863192;29;20559;-84
2024/03/31 11:46:03;;;;;;;5.70;1.37;;;;;;;;;;4858727;29;20940;-83
2024/03/31 11:48:30;;;;;;;4.37;1.37;;;;;;;;;;4826368;29;20430;-83
2024/03/31 11:50:56;;;;;;;4.47;1.37;;;;;;;;;;4820455;29;20536;-83
2024/03/31 11:53:22;;;;;;;9.40;1.57;;;;;;;;;;4792633;29;21072;-83
2024/03/31 11:55:49;;;;;;;5.73;1.50;;;;;;;;;;4804409;29;20399;-85
2024/03/31 11:58:15;;;;;;;6.47;1.70;;;;;;;;;;4832514;29;20430;-84
2024/03/31 12:00:50;;;;;;;5.20;1.50;;;;;;;;;;4825960;29;20393;-83
2024/03/31 12:03:16;;;;;;;3.10;1.30;;;;;;;;;;4807863;29;20423;-86
2024/03/31 12:05:46;;;;;;;3.77;1.13;;;;;;;;;;4787852;29;20510;-84
2024/03/31 12:08:12;;;;;;;6.17;1.20;;;;;;;;;;4770176;30;20433;-83
2024/03/31 12:10:38;;;;;;;5.20;1.57;;;;;;;;;;4818843;29;20474;-82
2024/03/31 12:13:05;;;;;;;5.87;2.07;;;;;;;;;;4821583;29;20401;-84
2024/03/31 12:15:31;;;;;;;6.70;1.53;;;;;;;;;;4821605;29;20492;-84
2024/03/31 12:18:00;;;;;;;4.13;1.50;;;;;;;;;;4824206;29;20415;-82
2024/03/31 12:20:26;;;;;;;4.63;1.40;;;;;;;;;;4839920;29;20412;-81
2024/03/31 12:22:53;;;;;;;4.13;1.47;;;;;;;;;;4787968;29;20832;-82
2024/03/31 12:25:19;;;;;;;9.10;2.17;;;;;;;;;;4777965;29;20401;-81
2024/03/31 12:27:46;;;;;;;8.50;1.60;;;;;;;;;;4754291;29;20469;-80
2024/03/31 12:30:12;;;;;;;2.30;1.00;;;;;;;;;;4789039;29;20531;-82
2024/03/31 12:32:38;;;;;;;3.20;1.10;;;;;;;;;;4802918;29;20494;-81
2024/03/31 12:35:04;;;;;;;6.00;2.00;;;;;;;;;;4767594;29;20782;-82
2024/03/31 12:37:30;;;;;;;4.93;1.43;;;;;;;;;;4742901;30;20522;-81
2024/03/31 12:39:57;;;;;;;7.13;1.30;;;;;;;;;;4770773;30;20425;-81
2024/03/31 12:42:26;;;;;;;6.13;1.87;;;;;;;;;;4778945;29;20509;-81
2024/03/31 12:44:58;;;;;;;4.03;1.27;;;;;;;;;;4782626;30;20418;-80
2024/03/31 12:47:25;;;;;;;3.67;1.30;;;;;;;;;;4774036;30;20425;-81
2024/03/31 12:49:51;;;;;;;4.90;1.80;;;;;;;;;;4776845;29;20463;-80
2024/03/31 12:52:17;;;;;;;6.00;1.80;;;;;;;;;;4756027;30;20413;-82
2024/03/31 12:54:43;;;;;;;7.00;1.90;;;;;;;;;;4761436;30;20433;-81
2024/03/31 12:57:09;;;;;;;6.10;1.47;;;;;;;;;;4784363;29;20432;-80
2024/03/31 12:59:41;;;;;;;5.50;1.63;;;;;;;;;;4801139;29;20761;-80
2024/03/31 13:02:09;;;;;;;4.97;1.40;;;;;;;;;;4822346;29;20514;-81
2024/03/31 13:04:41;;;;;;;3.53;1.20;;;;;;;;;;4827373;29;20389;-80
2024/03/31 13:07:07;;;;;;;6.50;1.63;;;;;;;;;;4842825;29;20399;-81
2024/03/31 13:09:34;;;;;;;8.40;1.43;;;;;;;;;;4815067;29;20445;-81
2024/03/31 13:12:00;;;;;;;9.87;1.70;;;;;;;;;;4861756;29;20403;-82
2024/03/31 13:14:25;;;;;;;7.27;1.50;;;;;;;;;;4810202;29;20500;-81
2024/03/31 13:16:51;;;;;;;4.50;1.57;;;;;;;;;;4819485;29;20610;-81
2024/03/31 13:19:17;;;;;;;4.40;1.27;;;;;;;;;;4794491;29;20392;-82
2024/03/31 13:21:43;;;;;;;4.80;1.50;;;;;;;;;;4828919;29;20398;-82
2024/03/31 13:24:09;;;;;;;3.37;1.80;;;;;;;;;;4779425;29;20446;-83
2024/03/31 13:26:36;;;;;;;4.90;1.63;;;;;;;;;;4826936;29;20413;-81
2024/03/31 13:29:02;;;;;;;8.87;1.77;;;;;;;;;;4838014;29;20430;-82
2024/03/31 13:31:28;;;;;;;9.77;2.63;;;;;;;;;;4809715;29;20414;-82
2024/03/31 13:33:55;;;;;;;4.17;1.70;;;;;;;;;;4841579;29;20396;-83
2024/03/31 13:36:20;;;;;;;3.10;1.40;;;;;;;;;;4809599;29;20911;-83
2024/03/31 13:38:46;;;;;;;4.10;1.20;;;;;;;;;;4823896;29;20429;-82
2024/03/31 13:41:12;;;;;;;5.00;1.47;;;;;;;;;;4792528;29;20789;-88
2024/03/31 13:43:38;;;;;;;7.43;2.00;;;;;;;;;;4762518;29;20456;-83
2024/03/31 13:46:04;;;;;;;6.33;2.37;;;;;;;;;;4761669;29;20521;-82
2024/03/31 13:48:32;;;;;;;5.27;1.33;;;;;;;;;;4742983;30;20546;-82
2024/03/31 13:50:58;;;;;;;13.87;2.20;;;;;;;;;;4735315;30;20862;-83
2024/03/31 13:53:24;;;;;;;5.43;1.97;;;;;;;;;;4648896;30;20448;-83
2024/03/31 13:55:50;;;;;;;6.60;2.03;;;;;;;;;;4654428;30;20424;-84
2024/03/31 13:58:15;;;;;;;8.10;2.17;;;;;;;;;;4665002;30;20625;-82
2024/03/31 14:00:41;;;;;;;6.40;1.73;;;;;;;;;;4669223;30;20775;-81
2024/03/31 14:03:07;;;;;;;3.10;1.50;;;;;;;;;;4703623;30;20441;-81
2024/03/31 14:05:33;;;;;;;6.63;1.70;;;;;;;;;;4708178;30;20524;-81
2024/03/31 14:07:59;;;;;;;5.07;1.20;;;;;;;;;;4723215;30;20429;-81
2024/03/31 14:10:26;;;;;;;5.23;1.60;;;;;;;;;;4786972;29;20522;-83
2024/03/31 14:12:52;;;;;;;6.90;2.03;;;;;;;;;;4800349;29;20394;-82
2024/03/31 14:15:18;;;;;;;5.33;1.80;;;;;;;;;;4747989;30;20448;-81
2024/03/31 14:17:44;;;;;;;5.87;1.70;;;;;;;;;;4773696;29;20404;-81
2024/03/31 14:20:10;;;;;;;5.63;1.93;;;;;;;;;;4787197;29;20441;-81
2024/03/31 14:22:36;;;;;;;7.13;1.87;;;;;;;;;;4778829;29;20902;-81
2024/03/31 14:25:03;;;;;;;4.97;1.40;;;;;;;;;;4774247;30;20396;-81
2024/03/31 14:27:29;;;;;;;7.50;2.00;;;;;;;;;;4773567;30;20437;-81
2024/03/31 14:29:55;;;;;;;5.83;1.50;;;;;;;;;;4743059;30;20461;-81
2024/03/31 14:32:21;;;;;;;7.63;1.80;;;;;;;;;;4700966;30;20860;-87